Time;durP1;ratioP1;P1;durP2;ratioP2;P2;SDS_P1;SDS_P2;PMS_P1;PMS_P2;Temp;Humidity;BMP_temperature;BMP_pressure;BME280_temperature;BME280_humidity;BME280_pressure;Samples;Min_cycle;Max_cycle;Signal;HPM_P1;HPM_P2
2021/04/24 00:01:42;;;;;;;2.03;0.70;;;6.50;66.60;;;;;;5113486;28;20112;-73
2021/04/24 00:04:09;;;;;;;0.98;0.70;;;6.50;66.60;;;;;;5094169;28;20062;-74
2021/04/24 00:06:35;;;;;;;1.40;0.80;;;6.50;66.70;;;;;;5113591;28;20043;-74
2021/04/24 00:09:03;;;;;;;1.20;0.60;;;6.50;66.80;;;;;;5094334;28;20039;-74
2021/04/24 00:11:29;;;;;;;1.50;0.60;;;6.50;66.90;;;;;;5077683;28;20036;-74
2021/04/24 00:13:56;;;;;;;1.05;0.68;;;6.30;66.70;;;;;;5112406;28;20031;-74
2021/04/24 00:16:22;;;;;;;0.57;0.45;;;6.40;66.90;;;;;;5094580;28;20050;-74
2021/04/24 00:18:49;;;;;;;0.50;0.50;;;6.40;67.00;;;;;;5094908;28;20201;-74
2021/04/24 00:21:16;;;;;;;0.75;0.40;;;6.40;67.00;;;;;;5077688;28;20435;-74
2021/04/24 00:23:43;;;;;;;1.42;0.85;;;6.40;67.10;;;;;;5112849;28;20122;-74
2021/04/24 00:26:09;;;;;;;1.73;0.77;;;6.30;67.10;;;;;;5076014;28;20036;-74
2021/04/24 00:28:35;;;;;;;2.42;0.70;;;6.30;67.20;;;;;;5094372;28;20046;-74
2021/04/24 00:31:02;;;;;;;1.40;0.68;;;6.30;67.20;;;;;;5093949;28;20055;-75
2021/04/24 00:33:28;;;;;;;0.95;0.50;;;6.30;67.40;;;;;;5093378;28;20389;-74
2021/04/24 00:35:54;;;;;;;0.98;0.45;;;6.20;67.40;;;;;;5077488;28;20036;-73
2021/04/24 00:38:21;;;;;;;0.90;0.50;;;6.20;67.50;;;;;;5094153;28;20101;-73
2021/04/24 00:40:50;;;;;;;0.63;0.60;;;6.20;67.50;;;;;;5076644;28;20036;-73
2021/04/24 00:43:18;;;;;;;1.65;0.80;;;6.10;67.60;;;;;;5077321;28;20152;-73
2021/04/24 00:45:48;;;;;;;0.98;0.50;;;6.10;67.60;;;;;;5059476;28;20115;-74
2021/04/24 00:48:14;;;;;;;2.40;0.80;;;6.10;67.70;;;;;;5077295;28;20146;-73
2021/04/24 00:50:41;;;;;;;1.40;0.68;;;6.10;67.70;;;;;;5077505;28;20040;-73
2021/04/24 00:53:09;;;;;;;0.63;0.50;;;6.10;67.80;;;;;;5112514;28;20131;-74
2021/04/24 00:55:37;;;;;;;0.95;0.60;;;6.00;67.80;;;;;;5112584;28;20442;-74
2021/04/24 00:58:05;;;;;;;0.82;0.47;;;6.00;67.70;;;;;;5093965;28;20102;-73
2021/04/24 01:00:32;;;;;;;0.90;0.57;;;6.00;67.80;;;;;;5112648;28;20489;-74
2021/04/24 01:02:59;;;;;;;0.50;0.43;;;6.00;67.90;;;;;;5112574;28;20043;-74
2021/04/24 01:05:31;;;;;;;2.08;0.50;;;6.00;68.00;;;;;;5093742;28;20043;-74
2021/04/24 01:07:57;;;;;;;0.30;0.30;;;5.90;68.10;;;;;;5077687;28;20078;-74
2021/04/24 01:10:24;;;;;;;0.32;0.32;;;5.90;68.10;;;;;;5112572;28;20034;-74
2021/04/24 01:12:51;;;;;;;0.77;0.52;;;5.80;68.10;;;;;;5112128;28;20435;-74
2021/04/24 01:15:20;;;;;;;0.82;0.50;;;5.90;68.20;;;;;;5077000;28;20035;-74
2021/04/24 01:17:47;;;;;;;0.63;0.50;;;5.90;68.30;;;;;;5112002;28;20072;-75
2021/04/24 01:20:15;;;;;;;2.35;0.70;;;5.80;68.20;;;;;;5074989;28;20068;-74
2021/04/24 01:22:42;;;;;;;1.13;0.50;;;5.80;68.40;;;;;;5112041;28;20059;-75
2021/04/24 01:25:11;;;;;;;0.98;0.50;;;5.80;68.40;;;;;;5079363;28;20051;-73
2021/04/24 01:27:38;;;;;;;0.65;0.32;;;5.80;68.50;;;;;;5080616;28;20047;-74
2021/04/24 01:30:08;;;;;;;0.55;0.43;;;5.80;68.60;;;;;;5097114;28;20043;-75
2021/04/24 01:32:35;;;;;;;0.60;0.57;;;5.70;68.60;;;;;;5081150;28;20079;-74
2021/04/24 01:35:01;;;;;;;0.70;0.50;;;5.70;68.70;;;;;;5115520;28;20448;-74
2021/04/24 01:37:27;;;;;;;1.20;0.52;;;5.70;68.70;;;;;;5115962;28;20542;-74
2021/04/24 01:39:54;;;;;;;0.98;0.55;;;5.70;68.80;;;;;;5080279;28;20151;-75
2021/04/24 01:42:20;;;;;;;0.40;0.40;;;5.70;68.90;;;;;;5097322;28;20089;-74
2021/04/24 01:44:46;;;;;;;0.28;0.28;;;5.60;68.90;;;;;;5115487;28;20457;-75
2021/04/24 01:47:12;;;;;;;0.60;0.50;;;5.60;69.00;;;;;;5115188;28;20050;-74
2021/04/24 01:49:38;;;;;;;0.85;0.50;;;5.60;69.00;;;;;;5115341;28;20040;-75
2021/04/24 01:52:05;;;;;;;0.45;0.43;;;5.60;69.10;;;;;;5095529;28;20131;-75
2021/04/24 01:54:31;;;;;;;0.82;0.50;;;5.50;69.10;;;;;;5080237;28;20043;-74
2021/04/24 01:56:58;;;;;;;0.73;0.50;;;5.50;69.10;;;;;;5115307;28;20051;-74
2021/04/24 01:59:28;;;;;;;1.10;0.57;;;5.50;69.10;;;;;;5080033;28;20040;-74
2021/04/24 02:01:57;;;;;;;1.00;0.57;;;5.60;69.20;;;;;;5096341;28;20530;-75
2021/04/24 02:04:26;;;;;;;1.20;0.52;;;5.60;69.20;;;;;;5114929;28;20055;-75
2021/04/24 02:06:53;;;;;;;1.33;0.70;;;5.50;69.30;;;;;;5114625;28;20046;-74
2021/04/24 02:09:20;;;;;;;0.63;0.52;;;5.40;69.90;;;;;;5094857;28;20040;-74
2021/04/24 02:12:02;;;;;;;1.45;0.60;;;5.40;69.30;;;;;;5079845;28;20154;-74
2021/04/24 02:14:29;;;;;;;0.80;0.52;;;5.40;69.40;;;;;;5096453;28;20039;-75
2021/04/24 02:16:55;;;;;;;1.27;0.63;;;5.50;69.40;;;;;;5115221;28;20036;-74
2021/04/24 02:19:21;;;;;;;1.33;0.80;;;5.40;69.40;;;;;;5114643;28;20051;-74
2021/04/24 02:21:48;;;;;;;1.13;0.60;;;5.40;69.40;;;;;;5114613;28;20051;-74
2021/04/24 02:24:14;;;;;;;0.88;0.50;;;5.50;69.40;;;;;;5114778;28;20043;-74
2021/04/24 02:26:40;;;;;;;0.52;0.50;;;5.40;69.40;;;;;;5114345;28;20040;-74
2021/04/24 02:29:07;;;;;;;0.43;0.40;;;5.40;69.40;;;;;;5095137;28;20576;-74
2021/04/24 02:31:33;;;;;;;0.88;0.50;;;5.40;69.50;;;;;;5096081;28;20081;-74
2021/04/24 02:33:59;;;;;;;0.57;0.43;;;5.40;69.60;;;;;;5114367;28;20381;-73
2021/04/24 02:36:26;;;;;;;0.38;0.38;;;5.40;69.60;;;;;;5113905;28;20036;-74
2021/04/24 02:38:53;;;;;;;0.70;0.52;;;5.30;69.70;;;;;;5096362;28;20047;-74
2021/04/24 02:41:20;;;;;;;1.65;0.75;;;5.30;69.80;;;;;;5114751;28;20488;-75
2021/04/24 02:43:47;;;;;;;0.77;0.47;;;5.30;69.90;;;;;;5096175;28;20047;-74
2021/04/24 02:46:14;;;;;;;1.30;0.57;;;5.30;70.00;;;;;;5114111;28;20511;-74
2021/04/24 02:48:40;;;;;;;1.23;0.50;;;5.40;70.10;;;;;;5094945;28;20382;-73
2021/04/24 02:51:06;;;;;;;0.63;0.50;;;5.30;70.00;;;;;;5114274;28;20035;-73
2021/04/24 02:53:32;;;;;;;0.50;0.50;;;5.30;70.10;;;;;;5095802;28;20131;-74
2021/04/24 02:55:59;;;;;;;0.77;0.50;;;5.20;70.00;;;;;;5114097;28;20110;-73
2021/04/24 02:58:26;;;;;;;0.70;0.57;;;5.20;70.10;;;;;;5114601;28;20084;-74
2021/04/24 03:00:52;;;;;;;0.85;0.50;;;5.20;70.20;;;;;;5095994;28;20047;-74
2021/04/24 03:03:18;;;;;;;0.85;0.40;;;5.20;70.20;;;;;;5095901;28;20574;-74
2021/04/24 03:05:44;;;;;;;1.30;0.60;;;5.20;70.20;;;;;;5078675;28;20081;-73
2021/04/24 03:08:11;;;;;;;0.75;0.50;;;5.20;70.20;;;;;;5078954;28;20089;-74
2021/04/24 03:10:40;;;;;;;0.60;0.50;;;5.20;70.30;;;;;;5096589;28;20126;-74
2021/04/24 03:13:07;;;;;;;0.85;0.60;;;5.10;70.40;;;;;;5079090;28;20044;-74
2021/04/24 03:15:34;;;;;;;0.90;0.40;;;5.10;70.40;;;;;;5095774;28;20456;-73
2021/04/24 03:18:01;;;;;;;0.50;0.40;;;5.10;70.50;;;;;;5095582;28;20126;-73
2021/04/24 03:20:28;;;;;;;0.63;0.50;;;5.10;70.60;;;;;;5079224;28;20036;-74
2021/04/24 03:22:54;;;;;;;0.75;0.40;;;5.20;70.70;;;;;;5113693;28;20084;-73
2021/04/24 03:25:21;;;;;;;0.88;0.60;;;5.00;70.60;;;;;;5114005;28;20048;-73
2021/04/24 03:27:47;;;;;;;0.65;0.47;;;5.00;70.70;;;;;;5095276;28;20070;-74
2021/04/24 03:30:15;;;;;;;0.88;0.43;;;5.00;70.70;;;;;;5113290;28;20035;-74
2021/04/24 03:32:42;;;;;;;0.50;0.30;;;5.00;70.70;;;;;;5113446;28;20039;-74
2021/04/24 03:35:09;;;;;;;0.35;0.32;;;4.90;70.70;;;;;;5095884;28;20047;-74
2021/04/24 03:37:37;;;;;;;1.30;0.32;;;5.00;70.90;;;;;;5095201;28;20504;-74
2021/04/24 03:40:04;;;;;;;1.17;0.50;;;5.10;70.90;;;;;;5093860;28;20055;-73
2021/04/24 03:42:31;;;;;;;0.32;0.32;;;4.90;70.80;;;;;;5113327;28;20042;-74
2021/04/24 03:44:57;;;;;;;0.40;0.38;;;4.90;70.80;;;;;;5078204;28;20443;-74
2021/04/24 03:47:24;;;;;;;0.40;0.40;;;4.90;70.90;;;;;;5112119;28;20044;-75
2021/04/24 03:49:50;;;;;;;0.50;0.40;;;4.90;71.00;;;;;;5113145;28;20053;-75
2021/04/24 03:52:17;;;;;;;0.73;0.57;;;4.90;71.10;;;;;;5094889;28;20050;-75
2021/04/24 03:54:43;;;;;;;1.27;0.40;;;4.80;71.10;;;;;;5059187;28;20032;-74
2021/04/24 03:57:09;;;;;;;1.17;0.30;;;4.80;71.20;;;;;;5094777;28;20047;-74
2021/04/24 03:59:35;;;;;;;0.63;0.40;;;4.70;71.20;;;;;;5112948;28;20043;-75
2021/04/24 04:02:01;;;;;;;0.32;0.32;;;4.70;71.40;;;;;;5113329;28;20047;-74
2021/04/24 04:04:27;;;;;;;1.30;0.60;;;4.70;71.50;;;;;;5095081;28;20152;-75
2021/04/24 04:06:53;;;;;;;0.98;0.60;;;4.60;71.40;;;;;;5094216;28;20036;-75
2021/04/24 04:09:20;;;;;;;0.80;0.38;;;4.60;71.50;;;;;;5078229;28;20035;-75
2021/04/24 04:11:46;;;;;;;0.68;0.50;;;4.60;71.60;;;;;;5092859;28;20398;-74
2021/04/24 04:14:12;;;;;;;0.68;0.40;;;4.60;72.30;;;;;;5113393;28;20035;-74
2021/04/24 04:16:38;;;;;;;0.30;0.30;;;4.60;71.70;;;;;;5112927;28;20032;-74
2021/04/24 04:19:04;;;;;;;0.40;0.40;;;4.50;71.80;;;;;;5094797;28;20110;-74
2021/04/24 04:21:30;;;;;;;1.75;0.45;;;4.50;71.80;;;;;;5094729;28;20039;-75
2021/04/24 04:23:57;;;;;;;0.88;0.40;;;4.50;71.90;;;;;;5113620;28;20059;-76
2021/04/24 04:26:23;;;;;;;0.38;0.38;;;4.40;71.90;;;;;;5095402;28;20040;-75
2021/04/24 04:28:49;;;;;;;0.40;0.30;;;4.40;72.00;;;;;;5061894;28;20498;-75
2021/04/24 04:31:15;;;;;;;0.43;0.40;;;4.40;72.00;;;;;;5077808;28;20067;-74
2021/04/24 04:33:41;;;;;;;0.43;0.40;;;4.30;72.00;;;;;;5113421;28;20457;-74
2021/04/24 04:36:07;;;;;;;0.90;0.40;;;4.40;72.10;;;;;;5113005;28;20063;-74
2021/04/24 04:38:34;;;;;;;0.90;0.50;;;4.30;72.10;;;;;;5113472;28;20044;-74
2021/04/24 04:41:01;;;;;;;0.40;0.22;;;4.30;72.10;;;;;;5112892;28;20122;-74
2021/04/24 04:43:27;;;;;;;0.90;0.40;;;4.30;72.10;;;;;;5061167;28;20032;-74
2021/04/24 04:45:53;;;;;;;0.45;0.30;;;4.30;72.10;;;;;;5093726;28;20040;-73
2021/04/24 04:48:20;;;;;;;0.75;0.28;;;4.40;72.20;;;;;;5095244;28;20069;-75
2021/04/24 04:50:46;;;;;;;0.82;0.40;;;4.30;72.20;;;;;;5094579;28;20039;-74
2021/04/24 04:53:12;;;;;;;0.40;0.40;;;4.30;72.20;;;;;;5094720;28;20069;-75
2021/04/24 04:55:38;;;;;;;0.20;0.20;;;4.30;72.30;;;;;;5094573;28;20054;-73
2021/04/24 04:58:08;;;;;;;1.85;0.43;;;4.40;72.30;;;;;;5112867;28;20044;-75
2021/04/24 05:00:34;;;;;;;0.63;0.43;;;4.40;72.30;;;;;;5064347;28;20483;-75
2021/04/24 05:03:00;;;;;;;0.47;0.35;;;4.40;72.10;;;;;;5097859;28;20055;-75
2021/04/24 05:05:27;;;;;;;2.08;0.57;;;4.40;72.00;;;;;;5079768;28;20048;-75
2021/04/24 05:07:56;;;;;;;0.35;0.30;;;4.50;72.00;;;;;;5098480;28;20427;-75
2021/04/24 05:10:24;;;;;;;1.25;0.50;;;4.60;72.00;;;;;;5095902;28;20038;-75
2021/04/24 05:12:50;;;;;;;0.65;0.50;;;4.60;71.90;;;;;;5098430;28;20445;-75
2021/04/24 05:15:17;;;;;;;0.77;0.40;;;4.60;71.90;;;;;;5097242;28;20451;-76
2021/04/24 05:17:44;;;;;;;0.30;0.28;;;4.70;71.80;;;;;;5115723;28;20044;-75
2021/04/24 05:20:11;;;;;;;0.30;0.30;;;4.80;71.80;;;;;;5115661;28;20044;-75
2021/04/24 05:22:38;;;;;;;0.45;0.38;;;4.80;71.60;;;;;;5115793;28;20043;-75
2021/04/24 05:25:05;;;;;;;0.28;0.28;;;4.90;71.50;;;;;;5115802;28;20036;-75
2021/04/24 05:27:33;;;;;;;0.77;0.40;;;5.00;71.50;;;;;;5097452;28;20405;-75
2021/04/24 05:29:59;;;;;;;0.95;0.40;;;5.10;71.40;;;;;;5097397;28;20028;-75
2021/04/24 05:32:26;;;;;;;0.50;0.30;;;5.20;71.30;;;;;;5115775;28;20485;-75
2021/04/24 05:34:52;;;;;;;0.60;0.40;;;5.20;71.20;;;;;;5080625;28;20040;-75
2021/04/24 05:37:18;;;;;;;0.50;0.40;;;5.30;71.10;;;;;;5096602;28;20069;-75
2021/04/24 05:39:46;;;;;;;0.95;0.40;;;5.30;71.00;;;;;;5097272;28;20485;-75
2021/04/24 05:42:12;;;;;;;0.70;0.38;;;5.40;71.00;;;;;;5116057;28;20040;-74
2021/04/24 05:44:39;;;;;;;0.63;0.40;;;5.50;71.00;;;;;;5115433;28;20489;-74
2021/04/24 05:47:06;;;;;;;0.80;0.60;;;5.60;70.90;;;;;;5115911;28;20048;-74
2021/04/24 05:49:33;;;;;;;1.02;0.50;;;5.70;70.90;;;;;;5115299;28;20460;-74
2021/04/24 05:52:01;;;;;;;0.30;0.30;;;5.80;70.80;;;;;;5097525;28;20043;-75
2021/04/24 05:54:27;;;;;;;0.55;0.40;;;5.80;70.70;;;;;;5061837;28;20028;-74
2021/04/24 05:56:53;;;;;;;0.55;0.30;;;6.00;70.70;;;;;;5115727;28;20081;-75
2021/04/24 05:59:20;;;;;;;0.68;0.50;;;6.10;70.50;;;;;;5115381;28;20036;-75
2021/04/24 06:01:46;;;;;;;0.63;0.45;;;6.20;70.40;;;;;;5115079;28;20119;-75
2021/04/24 06:04:12;;;;;;;1.23;0.57;;;6.30;70.30;;;;;;5114969;28;20546;-74
2021/04/24 06:06:38;;;;;;;0.63;0.47;;;6.30;70.10;;;;;;5097273;28;20035;-74
2021/04/24 06:09:05;;;;;;;0.52;0.45;;;6.50;70.10;;;;;;5097005;28;20039;-75
2021/04/24 06:11:31;;;;;;;0.30;0.30;;;6.60;70.00;;;;;;5096257;28;20111;-74
2021/04/24 06:13:57;;;;;;;1.05;0.50;;;6.70;69.90;;;;;;5115094;28;20036;-75
2021/04/24 06:16:24;;;;;;;1.15;0.47;;;6.70;69.80;;;;;;5080096;28;20040;-74
2021/04/24 06:18:50;;;;;;;1.17;0.55;;;6.80;69.60;;;;;;5097210;28;20044;-74
2021/04/24 06:21:16;;;;;;;1.27;0.50;;;6.80;69.60;;;;;;5078503;28;20039;-74
2021/04/24 06:23:43;;;;;;;0.80;0.68;;;6.90;69.60;;;;;;5094457;28;20047;-75
2021/04/24 06:26:09;;;;;;;0.70;0.47;;;7.00;69.70;;;;;;5097297;28;20055;-74
2021/04/24 06:28:35;;;;;;;0.40;0.40;;;7.00;69.70;;;;;;5096969;28;20120;-75
2021/04/24 06:31:01;;;;;;;0.40;0.30;;;7.10;69.70;;;;;;5096624;28;20039;-74
2021/04/24 06:33:27;;;;;;;0.50;0.40;;;7.20;69.60;;;;;;5097193;28;20056;-74
2021/04/24 06:35:53;;;;;;;1.88;0.70;;;7.30;69.50;;;;;;5114653;28;20131;-74
2021/04/24 06:38:21;;;;;;;1.42;0.63;;;7.40;69.40;;;;;;5096394;28;20039;-74
2021/04/24 06:40:47;;;;;;;0.60;0.40;;;7.50;69.40;;;;;;5114798;28;20044;-75
2021/04/24 06:43:13;;;;;;;0.50;0.50;;;7.60;69.40;;;;;;5096373;28;20046;-74
2021/04/24 06:45:40;;;;;;;0.93;0.68;;;7.70;69.30;;;;;;5114482;28;20039;-74
2021/04/24 06:48:07;;;;;;;0.85;0.60;;;7.80;69.20;;;;;;5096526;28;20061;-74
2021/04/24 06:50:35;;;;;;;1.60;0.52;;;7.90;69.10;;;;;;5114745;28;20123;-74
2021/04/24 06:53:03;;;;;;;0.57;0.43;;;8.00;68.90;;;;;;5114673;28;20035;-73
2021/04/24 06:55:29;;;;;;;0.45;0.40;;;8.10;68.90;;;;;;5095718;28;20464;-74
2021/04/24 06:57:56;;;;;;;0.93;0.50;;;8.20;68.80;;;;;;5096005;28;20043;-75
2021/04/24 07:00:22;;;;;;;1.13;0.45;;;8.30;68.70;;;;;;5096108;28;20040;-74
2021/04/24 07:02:49;;;;;;;0.75;0.40;;;8.30;68.70;;;;;;5114277;28;20047;-75
2021/04/24 07:05:15;;;;;;;1.42;0.50;;;8.40;68.70;;;;;;5079369;28;20044;-74
2021/04/24 07:07:43;;;;;;;2.05;0.60;;;8.50;68.60;;;;;;5096036;28;20036;-75
2021/04/24 07:10:10;;;;;;;1.80;0.60;;;8.60;68.40;;;;;;5114050;28;20039;-74
2021/04/24 07:12:37;;;;;;;0.50;0.40;;;8.60;68.40;;;;;;5094092;28;20156;-74
2021/04/24 07:15:05;;;;;;;0.40;0.40;;;8.60;68.50;;;;;;5078923;28;20042;-73
2021/04/24 07:17:31;;;;;;;0.75;0.43;;;8.80;68.60;;;;;;5095872;28;20096;-73
2021/04/24 07:19:57;;;;;;;0.60;0.60;;;8.70;68.40;;;;;;5078798;28;20047;-74
2021/04/24 07:22:23;;;;;;;0.93;0.70;;;8.80;68.50;;;;;;5062243;28;20073;-74
2021/04/24 07:24:50;;;;;;;0.73;0.52;;;8.90;68.50;;;;;;5096072;28;20058;-74
2021/04/24 07:27:16;;;;;;;1.00;0.60;;;9.00;68.40;;;;;;5095451;28;20138;-74
2021/04/24 07:29:43;;;;;;;0.52;0.40;;;9.10;68.20;;;;;;5113633;28;20131;-72
2021/04/24 07:32:09;;;;;;;0.40;0.40;;;9.20;68.10;;;;;;5113780;28;20031;-72
2021/04/24 07:34:35;;;;;;;0.40;0.38;;;9.40;67.90;;;;;;5096240;28;20366;-71
2021/04/24 07:37:02;;;;;;;0.50;0.50;;;9.40;67.70;;;;;;5113697;28;20043;-72
2021/04/24 07:39:29;;;;;;;1.35;0.65;;;9.50;67.50;;;;;;5113631;28;20067;-72
2021/04/24 07:41:55;;;;;;;0.77;0.50;;;9.70;67.40;;;;;;5094288;28;20542;-74
2021/04/24 07:44:24;;;;;;;0.60;0.30;;;9.80;67.20;;;;;;5113492;28;20081;-74
2021/04/24 07:46:52;;;;;;;0.70;0.43;;;10.00;67.00;;;;;;5095139;28;20055;-73
2021/04/24 07:49:18;;;;;;;0.50;0.50;;;10.20;66.70;;;;;;5113970;28;20052;-73
2021/04/24 07:51:44;;;;;;;0.88;0.50;;;10.30;66.40;;;;;;5113344;28;20509;-74
2021/04/24 07:54:13;;;;;;;0.90;0.50;;;10.60;66.20;;;;;;5095122;28;20392;-73
2021/04/24 07:56:42;;;;;;;0.52;0.40;;;10.70;65.80;;;;;;5113875;28;20048;-73
2021/04/24 07:59:09;;;;;;;1.05;0.50;;;10.80;65.60;;;;;;5113544;28;20508;-73
2021/04/24 08:01:37;;;;;;;0.32;0.32;;;11.00;65.50;;;;;;5113634;28;20054;-74
2021/04/24 08:04:04;;;;;;;0.30;0.30;;;11.00;65.40;;;;;;5095380;28;20035;-76
2021/04/24 08:06:30;;;;;;;1.05;0.50;;;11.10;65.30;;;;;;5095131;28;20050;-76
2021/04/24 08:08:56;;;;;;;0.40;0.40;;;11.20;65.20;;;;;;5093379;28;20036;-75
2021/04/24 08:11:26;;;;;;;0.68;0.30;;;11.30;65.00;;;;;;5078554;28;20038;-75
2021/04/24 08:13:53;;;;;;;0.55;0.43;;;11.60;64.70;;;;;;5078924;28;20032;-76
2021/04/24 08:16:19;;;;;;;1.30;0.30;;;11.70;64.50;;;;;;5078713;28;20036;-76
2021/04/24 08:18:45;;;;;;;1.95;0.60;;;11.90;64.30;;;;;;5114003;28;20067;-77
2021/04/24 08:21:11;;;;;;;0.55;0.52;;;12.10;64.00;;;;;;5115103;28;20043;-75
2021/04/24 08:23:38;;;;;;;0.63;0.57;;;12.20;63.60;;;;;;5113712;28;20114;-75
2021/04/24 08:26:04;;;;;;;1.48;0.47;;;12.30;63.40;;;;;;5094643;28;20036;-75
2021/04/24 08:28:31;;;;;;;0.30;0.30;;;12.40;63.10;;;;;;5094877;28;20051;-76
2021/04/24 08:30:57;;;;;;;0.60;0.45;;;12.60;62.90;;;;;;5113633;28;20044;-75
2021/04/24 08:33:26;;;;;;;0.65;0.30;;;12.70;62.80;;;;;;5112345;28;20042;-76
2021/04/24 08:35:52;;;;;;;0.80;0.50;;;12.60;62.70;;;;;;5094725;28;20040;-77
2021/04/24 08:38:19;;;;;;;0.30;0.30;;;12.70;62.80;;;;;;5076568;28;20040;-77
2021/04/24 08:40:52;;;;;;;0.40;0.40;;;12.70;62.90;;;;;;5094905;28;20505;-77
2021/04/24 08:43:19;;;;;;;0.40;0.40;;;12.70;62.90;;;;;;5078535;28;20396;-78
2021/04/24 08:45:48;;;;;;;0.30;0.30;;;12.90;62.90;;;;;;5113145;28;20063;-76
2021/04/24 08:48:14;;;;;;;0.63;0.30;;;13.00;62.60;;;;;;5061255;28;20044;-77
2021/04/24 08:50:40;;;;;;;0.55;0.30;;;13.00;62.50;;;;;;5077391;28;20035;-78
2021/04/24 08:53:07;;;;;;;0.43;0.43;;;13.20;62.40;;;;;;5077453;28;20050;-78
2021/04/24 08:55:38;;;;;;;0.70;0.43;;;13.20;62.20;;;;;;5059393;28;20036;-75
2021/04/24 08:58:05;;;;;;;;;;;13.20;62.40;;;;;;5093382;28;20070;-75
2021/04/24 09:00:37;;;;;;;0.40;0.40;;;13.20;62.60;;;;;;5094361;28;20411;-76
2021/04/24 09:03:06;;;;;;;1.25;0.40;;;13.20;62.60;;;;;;5092629;28;20040;-74
2021/04/24 09:05:33;;;;;;;0.43;0.40;;;13.30;62.50;;;;;;5077368;28;20094;-78
2021/04/24 09:08:02;;;;;;;0.47;0.47;;;13.50;62.30;;;;;;5112241;28;20043;-76
2021/04/24 09:10:28;;;;;;;0.40;0.40;;;13.60;62.20;;;;;;5094345;28;20382;-74
2021/04/24 09:12:55;;;;;;;0.30;0.30;;;13.70;62.10;;;;;;5059865;28;20362;-75
2021/04/24 09:15:24;;;;;;;0.32;0.32;;;13.70;61.90;;;;;;5092772;28;20036;-75
2021/04/24 09:17:57;;;;;;;0.60;0.60;;;13.90;61.80;;;;;;5112651;28;20036;-76
2021/04/24 09:20:27;;;;;;;0.50;0.43;;;13.90;61.70;;;;;;5112028;28;20036;-76
2021/04/24 09:22:57;;;;;;;0.60;0.60;;;13.90;61.50;;;;;;5092798;28;20040;-76
2021/04/24 09:25:34;;;;;;;0.83;0.60;;;14.00;61.60;;;;;;5111957;28;20047;-75
2021/04/24 09:28:01;;;;;;;0.40;0.40;;;13.90;61.50;;;;;;5093636;28;20528;-75
2021/04/24 09:30:31;;;;;;;1.10;0.68;;;14.00;61.80;;;;;;5112067;28;20031;-78
2021/04/24 09:33:07;;;;;;;0.50;0.50;;;14.00;61.60;;;;;;5077178;28;20050;-76
2021/04/24 09:35:54;;;;;;;0.93;0.57;;;14.10;61.30;;;;;;5093490;28;20500;-76
2021/04/24 09:38:25;;;;;;;0.65;0.60;;;14.20;61.10;;;;;;5112001;28;20046;-74
2021/04/24 09:41:16;;;;;;;0.40;0.40;;;14.20;61.00;;;;;;5111927;28;20096;-73
2021/04/24 09:44:00;;;;;;;1.50;0.47;;;14.30;61.10;;;;;;5092501;28;20043;-75
2021/04/24 09:46:31;;;;;;;0.40;0.40;;;14.30;60.90;;;;;;5114299;28;20062;-76
2021/04/24 09:49:21;;;;;;;0.40;0.40;;;14.30;61.10;;;;;;5080036;28;20040;-77
2021/04/24 09:51:52;;;;;;;0.93;0.70;;;14.40;61.00;;;;;;5081599;28;20040;-75
2021/04/24 09:54:20;;;;;;;0.77;0.45;;;14.40;60.80;;;;;;5115209;28;20036;-75
2021/04/24 09:56:59;;;;;;;0.52;0.50;;;14.50;60.70;;;;;;5079404;28;20090;-76
2021/04/24 09:59:25;;;;;;;0.43;0.43;;;14.50;60.30;;;;;;5096880;28;20054;-75
2021/04/24 10:02:07;;;;;;;0.40;0.40;;;14.60;60.20;;;;;;5114974;28;20047;-75
2021/04/24 10:04:33;;;;;;;0.68;0.40;;;14.60;59.90;;;;;;5115404;28;20067;-75
2021/04/24 10:07:00;;;;;;;0.40;0.40;;;14.70;59.90;;;;;;5095951;28;20048;-74
2021/04/24 10:09:30;;;;;;;0.50;0.43;;;14.80;59.60;;;;;;5097020;28;20047;-75
2021/04/24 10:12:09;;;;;;;0.47;0.43;;;14.80;59.60;;;;;;5096939;28;20028;-74
2021/04/24 10:14:48;;;;;;;0.50;0.50;;;14.80;59.60;;;;;;5096694;28;20051;-74
2021/04/24 10:17:17;;;;;;;0.50;0.50;;;14.80;59.60;;;;;;5115133;28;20432;-74
2021/04/24 10:19:45;;;;;;;0.50;0.50;;;14.90;59.40;;;;;;5095344;28;20417;-76
2021/04/24 10:22:14;;;;;;;1.15;0.50;;;14.80;59.40;;;;;;5115230;28;20063;-74
2021/04/24 10:24:41;;;;;;;0.52;0.40;;;14.70;59.50;;;;;;5080023;28;20043;-75
2021/04/24 10:27:09;;;;;;;0.68;0.60;;;14.70;59.30;;;;;;5115204;28;20089;-75
2021/04/24 10:29:36;;;;;;;0.60;0.60;;;14.80;59.00;;;;;;5097393;28;20047;-74
2021/04/24 10:32:02;;;;;;;0.38;0.38;;;15.00;58.80;;;;;;5114971;28;20173;-74
2021/04/24 10:34:29;;;;;;;0.30;0.30;;;15.00;58.50;;;;;;5114660;28;20043;-75
2021/04/24 10:36:55;;;;;;;1.60;0.65;;;15.00;58.40;;;;;;5114957;28;20046;-74
2021/04/24 10:39:26;;;;;;;1.85;0.70;;;15.00;58.20;;;;;;5114557;28;20043;-75
2021/04/24 10:42:22;;;;;;;0.40;0.40;;;14.90;57.90;;;;;;5115014;28;20142;-74
2021/04/24 10:44:57;;;;;;;0.47;0.40;;;14.90;57.90;;;;;;5114763;28;20777;-74
2021/04/24 10:47:46;;;;;;;1.05;0.52;;;14.90;57.80;;;;;;5096730;28;20146;-74
2021/04/24 10:50:15;;;;;;;0.63;0.50;;;15.00;57.70;;;;;;5096081;28;20040;-73
2021/04/24 10:52:44;;;;;;;0.60;0.50;;;15.10;57.60;;;;;;5096168;28;20035;-73
2021/04/24 10:55:18;;;;;;;1.15;0.70;;;15.30;57.30;;;;;;5114321;28;20088;-73
2021/04/24 10:57:49;;;;;;;0.73;0.65;;;15.40;56.70;;;;;;5078889;28;20465;-75
2021/04/24 11:00:18;;;;;;;0.30;0.30;;;15.40;56.30;;;;;;5096617;28;20097;-74
2021/04/24 11:03:03;;;;;;;0.73;0.57;;;15.50;56.30;;;;;;5095882;28;20051;-74
2021/04/24 11:05:31;;;;;;;0.50;0.50;;;15.40;56.20;;;;;;5098284;28;20047;-74
2021/04/24 11:08:22;;;;;;;0.30;0.30;;;15.30;56.40;;;;;;5113920;28;20130;-74
2021/04/24 11:11:02;;;;;;;0.50;0.50;;;15.20;56.20;;;;;;5114832;28;20048;-74
2021/04/24 11:13:34;;;;;;;0.73;0.50;;;15.30;56.20;;;;;;5095906;28;20130;-75
2021/04/24 11:16:02;;;;;;;0.63;0.50;;;15.30;56.10;;;;;;5114767;28;20042;-74
2021/04/24 11:18:31;;;;;;;0.70;0.50;;;15.20;56.00;;;;;;5114272;28;20434;-74
2021/04/24 11:21:03;;;;;;;1.10;0.63;;;15.10;56.00;;;;;;5114049;28;20493;-75
2021/04/24 11:23:50;;;;;;;1.33;0.50;;;15.00;55.90;;;;;;5096304;28;20069;-75
2021/04/24 11:26:47;;;;;;;1.15;0.60;;;15.10;55.80;;;;;;5099066;28;20055;-75
2021/04/24 11:29:15;;;;;;;0.98;0.55;;;15.20;55.70;;;;;;5081319;28;20044;-75
2021/04/24 11:31:52;;;;;;;0.55;0.50;;;15.30;55.50;;;;;;5096338;28;20422;-74
2021/04/24 11:34:42;;;;;;;0.73;0.52;;;15.20;55.20;;;;;;5095687;28;20516;-75
2021/04/24 11:37:28;;;;;;;0.93;0.52;;;15.30;55.10;;;;;;5113931;28;20046;-75
2021/04/24 11:40:09;;;;;;;1.13;0.77;;;15.40;55.00;;;;;;5114044;28;20126;-75
2021/04/24 11:42:38;;;;;;;1.10;0.80;;;15.50;54.80;;;;;;5095444;28;20071;-74
2021/04/24 11:45:15;;;;;;;1.13;0.80;;;15.50;54.70;;;;;;5093599;28;20122;-75
2021/04/24 11:47:49;;;;;;;0.80;0.70;;;15.60;54.50;;;;;;5094365;28;20040;-75
2021/04/24 11:50:19;;;;;;;0.95;0.80;;;15.60;54.40;;;;;;5113929;28;20496;-75
2021/04/24 11:52:55;;;;;;;1.08;0.80;;;15.60;54.30;;;;;;5113738;28;20039;-75
2021/04/24 11:55:22;;;;;;;0.82;0.70;;;15.70;54.30;;;;;;5113880;28;20042;-75
2021/04/24 11:57:49;;;;;;;0.82;0.68;;;15.70;54.80;;;;;;5092965;28;20501;-75
2021/04/24 12:00:29;;;;;;;0.45;0.43;;;15.80;54.00;;;;;;5095055;28;20181;-74
2021/04/24 12:02:55;;;;;;;0.65;0.65;;;15.80;54.00;;;;;;5094866;28;20050;-74
2021/04/24 12:05:21;;;;;;;1.25;0.77;;;15.90;54.00;;;;;;5078340;28;20485;-74
2021/04/24 12:07:48;;;;;;;0.85;0.73;;;15.80;53.90;;;;;;5112701;28;20081;-74
2021/04/24 12:10:17;;;;;;;0.63;0.63;;;15.70;53.90;;;;;;5113286;28;20063;-74
2021/04/24 12:12:46;;;;;;;1.35;0.90;;;15.70;54.00;;;;;;5113329;28;20040;-74
2021/04/24 12:15:15;;;;;;;0.70;0.70;;;15.50;54.10;;;;;;5093686;28;20063;-74
2021/04/24 12:18:00;;;;;;;1.08;0.70;;;15.40;54.30;;;;;;5076770;28;20050;-74
2021/04/24 12:20:29;;;;;;;0.93;0.88;;;15.40;54.40;;;;;;5112676;28;20035;-75
2021/04/24 12:23:00;;;;;;;0.77;0.70;;;15.50;54.40;;;;;;5093352;28;20040;-75
2021/04/24 12:25:28;;;;;;;0.68;0.65;;;15.50;54.20;;;;;;5113508;28;20044;-73
2021/04/24 12:27:57;;;;;;;2.15;0.93;;;15.30;54.20;;;;;;5092992;28;20516;-74
2021/04/24 12:30:29;;;;;;;1.55;0.77;;;15.20;54.40;;;;;;5112898;28;20044;-73
2021/04/24 12:33:11;;;;;;;1.00;0.70;;;15.20;54.70;;;;;;5112742;28;20164;-73
2021/04/24 12:35:43;;;;;;;2.05;0.90;;;15.00;54.70;;;;;;5112369;28;20047;-73
2021/04/24 12:38:14;;;;;;;1.05;0.88;;;15.00;54.70;;;;;;5113133;28;20489;-72
2021/04/24 12:40:44;;;;;;;1.23;0.80;;;15.10;54.60;;;;;;5113356;28;20039;-72
2021/04/24 12:43:23;;;;;;;1.20;0.90;;;15.10;54.60;;;;;;5112994;28;20084;-73
2021/04/24 12:45:52;;;;;;;0.95;0.75;;;15.10;54.50;;;;;;5076556;28;20065;-71
2021/04/24 12:48:24;;;;;;;0.77;0.70;;;15.10;54.40;;;;;;5112539;28;20158;-73
2021/04/24 12:50:55;;;;;;;1.27;0.80;;;15.10;54.50;;;;;;5094172;28;20043;-72
2021/04/24 12:53:32;;;;;;;1.52;0.85;;;15.00;54.70;;;;;;5112495;28;20118;-72
2021/04/24 12:56:05;;;;;;;0.82;0.70;;;15.00;54.80;;;;;;5112331;28;20035;-74
2021/04/24 12:58:36;;;;;;;1.00;0.90;;;15.00;54.90;;;;;;5112839;28;20496;-73
2021/04/24 13:01:11;;;;;;;1.23;0.80;;;14.90;54.90;;;;;;5076003;28;20135;-74